sensor_id;sensor_type;location;lat;lon;timestamp;P1;durP1;ratioP1;P2;durP2;ratioP2
77206;SDS011;66190;50.708;7.906;2023-11-21T00:01:55;3.83;;;0.70;;
77206;SDS011;66190;50.708;7.906;2023-11-21T00:04:22;3.13;;;0.65;;
77206;SDS011;66190;50.708;7.906;2023-11-21T00:06:47;2.40;;;0.47;;
77206;SDS011;66190;50.708;7.906;2023-11-21T00:09:13;2.95;;;0.50;;
77206;SDS011;66190;50.708;7.906;2023-11-21T00:11:40;2.50;;;0.50;;
77206;SDS011;66190;50.708;7.906;2023-11-21T00:14:06;2.22;;;0.50;;
77206;SDS011;66190;50.708;7.906;2023-11-21T00:16:32;3.33;;;0.80;;
77206;SDS011;66190;50.708;7.906;2023-11-21T00:18:57;3.20;;;0.90;;
77206;SDS011;66190;50.708;7.906;2023-11-21T00:21:22;4.40;;;0.70;;
77206;SDS011;66190;50.708;7.906;2023-11-21T00:23:48;3.30;;;0.60;;
77206;SDS011;66190;50.708;7.906;2023-11-21T00:26:13;3.33;;;0.60;;
77206;SDS011;66190;50.708;7.906;2023-11-21T00:28:39;3.33;;;0.70;;
77206;SDS011;66190;50.708;7.906;2023-11-21T00:31:05;3.37;;;0.70;;
77206;SDS011;66190;50.708;7.906;2023-11-21T00:33:30;3.90;;;0.85;;
77206;SDS011;66190;50.708;7.906;2023-11-21T00:35:56;3.17;;;0.63;;
77206;SDS011;66190;50.708;7.906;2023-11-21T00:38:21;2.70;;;0.50;;
77206;SDS011;66190;50.708;7.906;2023-11-21T00:40:47;3.83;;;0.60;;
77206;SDS011;66190;50.708;7.906;2023-11-21T00:43:12;3.80;;;0.70;;
77206;SDS011;66190;50.708;7.906;2023-11-21T00:45:37;5.82;;;0.88;;
77206;SDS011;66190;50.708;7.906;2023-11-21T00:48:05;3.83;;;0.98;;
77206;SDS011;66190;50.708;7.906;2023-11-21T00:50:30;4.55;;;0.80;;
77206;SDS011;66190;50.708;7.906;2023-11-21T00:52:56;4.55;;;1.17;;
77206;SDS011;66190;50.708;7.906;2023-11-21T00:55:21;4.33;;;0.70;;
77206;SDS011;66190;50.708;7.906;2023-11-21T00:57:47;4.45;;;0.80;;
77206;SDS011;66190;50.708;7.906;2023-11-21T01:00:13;3.97;;;0.77;;
77206;SDS011;66190;50.708;7.906;2023-11-21T01:02:42;3.38;;;0.60;;
77206;SDS011;66190;50.708;7.906;2023-11-21T01:05:09;3.67;;;0.70;;
77206;SDS011;66190;50.708;7.906;2023-11-21T01:07:35;4.18;;;0.60;;
77206;SDS011;66190;50.708;7.906;2023-11-21T01:10:01;3.95;;;0.90;;
77206;SDS011;66190;50.708;7.906;2023-11-21T01:12:34;3.28;;;0.63;;
77206;SDS011;66190;50.708;7.906;2023-11-21T01:15:00;3.17;;;0.68;;
77206;SDS011;66190;50.708;7.906;2023-11-21T01:17:26;3.33;;;0.70;;
77206;SDS011;66190;50.708;7.906;2023-11-21T01:19:52;3.30;;;0.80;;
77206;SDS011;66190;50.708;7.906;2023-11-21T01:22:17;3.60;;;0.80;;
77206;SDS011;66190;50.708;7.906;2023-11-21T01:24:47;3.47;;;0.85;;
77206;SDS011;66190;50.708;7.906;2023-11-21T01:27:12;3.70;;;0.80;;
77206;SDS011;66190;50.708;7.906;2023-11-21T01:29:38;3.47;;;0.67;;
77206;SDS011;66190;50.708;7.906;2023-11-21T01:32:03;3.45;;;0.70;;
77206;SDS011;66190;50.708;7.906;2023-11-21T01:34:29;4.33;;;0.60;;
77206;SDS011;66190;50.708;7.906;2023-11-21T01:36:55;4.20;;;0.70;;
77206;SDS011;66190;50.708;7.906;2023-11-21T01:39:21;3.77;;;0.60;;
77206;SDS011;66190;50.708;7.906;2023-11-21T01:41:49;3.42;;;0.73;;
77206;SDS011;66190;50.708;7.906;2023-11-21T01:44:17;4.30;;;0.93;;
77206;SDS011;66190;50.708;7.906;2023-11-21T01:46:44;4.80;;;1.17;;
77206;SDS011;66190;50.708;7.906;2023-11-21T01:49:10;5.00;;;1.15;;
77206;SDS011;66190;50.708;7.906;2023-11-21T01:51:38;4.40;;;0.90;;
77206;SDS011;66190;50.708;7.906;2023-11-21T01:54:05;4.18;;;1.00;;
77206;SDS011;66190;50.708;7.906;2023-11-21T01:56:32;6.43;;;1.40;;
77206;SDS011;66190;50.708;7.906;2023-11-21T01:58:57;9.47;;;2.00;;
77206;SDS011;66190;50.708;7.906;2023-11-21T02:01:23;42.50;;;2.83;;
77206;SDS011;66190;50.708;7.906;2023-11-21T02:03:48;44.60;;;3.10;;
77206;SDS011;66190;50.708;7.906;2023-11-21T02:06:14;42.90;;;2.67;;
77206;SDS011;66190;50.708;7.906;2023-11-21T02:08:39;51.33;;;3.37;;
77206;SDS011;66190;50.708;7.906;2023-11-21T02:11:07;27.63;;;2.42;;
77206;SDS011;66190;50.708;7.906;2023-11-21T02:13:34;72.90;;;4.30;;
77206;SDS011;66190;50.708;7.906;2023-11-21T02:16:01;68.30;;;3.93;;
77206;SDS011;66190;50.708;7.906;2023-11-21T02:18:27;65.85;;;3.42;;
77206;SDS011;66190;50.708;7.906;2023-11-21T02:20:54;105.50;;;5.43;;
77206;SDS011;66190;50.708;7.906;2023-11-21T02:23:20;65.28;;;3.38;;
77206;SDS011;66190;50.708;7.906;2023-11-21T02:25:46;64.40;;;3.47;;
77206;SDS011;66190;50.708;7.906;2023-11-21T02:28:12;74.72;;;3.60;;
77206;SDS011;66190;50.708;7.906;2023-11-21T02:30:40;86.55;;;3.88;;
77206;SDS011;66190;50.708;7.906;2023-11-21T02:33:05;98.53;;;4.40;;
77206;SDS011;66190;50.708;7.906;2023-11-21T02:35:32;103.53;;;4.57;;
77206;SDS011;66190;50.708;7.906;2023-11-21T02:37:57;73.60;;;3.57;;
77206;SDS011;66190;50.708;7.906;2023-11-21T02:40:23;69.10;;;3.63;;
77206;SDS011;66190;50.708;7.906;2023-11-21T02:42:50;87.97;;;4.32;;
77206;SDS011;66190;50.708;7.906;2023-11-21T02:45:18;103.60;;;4.47;;
77206;SDS011;66190;50.708;7.906;2023-11-21T02:47:46;59.53;;;3.15;;
77206;SDS011;66190;50.708;7.906;2023-11-21T02:50:11;55.33;;;2.53;;
77206;SDS011;66190;50.708;7.906;2023-11-21T02:52:37;70.28;;;2.92;;
77206;SDS011;66190;50.708;7.906;2023-11-21T02:55:03;93.10;;;4.83;;
77206;SDS011;66190;50.708;7.906;2023-11-21T02:57:29;58.78;;;3.03;;
77206;SDS011;66190;50.708;7.906;2023-11-21T02:59:54;58.87;;;3.30;;
77206;SDS011;66190;50.708;7.906;2023-11-21T03:02:20;71.55;;;3.67;;
77206;SDS011;66190;50.708;7.906;2023-11-21T03:04:46;110.88;;;5.50;;
77206;SDS011;66190;50.708;7.906;2023-11-21T03:07:13;58.67;;;3.50;;
77206;SDS011;66190;50.708;7.906;2023-11-21T03:09:38;77.70;;;3.97;;
77206;SDS011;66190;50.708;7.906;2023-11-21T03:12:04;71.57;;;4.10;;
77206;SDS011;66190;50.708;7.906;2023-11-21T03:14:30;108.70;;;4.78;;
77206;SDS011;66190;50.708;7.906;2023-11-21T03:16:55;78.57;;;3.77;;
77206;SDS011;66190;50.708;7.906;2023-11-21T03:19:21;93.47;;;4.68;;
77206;SDS011;66190;50.708;7.906;2023-11-21T03:21:46;123.73;;;5.70;;
77206;SDS011;66190;50.708;7.906;2023-11-21T03:24:12;117.07;;;6.00;;
77206;SDS011;66190;50.708;7.906;2023-11-21T03:26:37;93.23;;;5.13;;
77206;SDS011;66190;50.708;7.906;2023-11-21T03:29:03;113.45;;;6.18;;
77206;SDS011;66190;50.708;7.906;2023-11-21T03:31:29;85.83;;;4.23;;
77206;SDS011;66190;50.708;7.906;2023-11-21T03:33:55;47.85;;;3.53;;
77206;SDS011;66190;50.708;7.906;2023-11-21T03:36:20;106.07;;;4.87;;
77206;SDS011;66190;50.708;7.906;2023-11-21T03:38:47;45.63;;;3.03;;
77206;SDS011;66190;50.708;7.906;2023-11-21T03:41:13;95.45;;;4.43;;
77206;SDS011;66190;50.708;7.906;2023-11-21T03:43:39;54.13;;;3.30;;
77206;SDS011;66190;50.708;7.906;2023-11-21T03:46:05;41.93;;;2.70;;
77206;SDS011;66190;50.708;7.906;2023-11-21T03:48:31;24.20;;;2.05;;
77206;SDS011;66190;50.708;7.906;2023-11-21T03:50:58;65.18;;;3.70;;
77206;SDS011;66190;50.708;7.906;2023-11-21T03:53:23;24.75;;;1.90;;
77206;SDS011;66190;50.708;7.906;2023-11-21T03:55:49;20.67;;;1.93;;
77206;SDS011;66190;50.708;7.906;2023-11-21T03:58:15;48.83;;;2.80;;
77206;SDS011;66190;50.708;7.906;2023-11-21T04:00:40;29.23;;;2.33;;
77206;SDS011;66190;50.708;7.906;2023-11-21T04:03:06;44.63;;;2.50;;
77206;SDS011;66190;50.708;7.906;2023-11-21T04:05:32;26.97;;;2.37;;
77206;SDS011;66190;50.708;7.906;2023-11-21T04:07:57;29.13;;;2.17;;
77206;SDS011;66190;50.708;7.906;2023-11-21T04:10:23;28.13;;;2.10;;
77206;SDS011;66190;50.708;7.906;2023-11-21T04:12:48;17.03;;;1.70;;
77206;SDS011;66190;50.708;7.906;2023-11-21T04:15:13;19.43;;;2.00;;
77206;SDS011;66190;50.708;7.906;2023-11-21T04:17:39;24.73;;;1.43;;
77206;SDS011;66190;50.708;7.906;2023-11-21T04:20:06;24.00;;;1.65;;
77206;SDS011;66190;50.708;7.906;2023-11-21T04:22:35;22.38;;;1.83;;
77206;SDS011;66190;50.708;7.906;2023-11-21T04:25:05;32.85;;;2.10;;
77206;SDS011;66190;50.708;7.906;2023-11-21T04:27:33;29.30;;;2.03;;
77206;SDS011;66190;50.708;7.906;2023-11-21T04:29:59;30.63;;;1.85;;
77206;SDS011;66190;50.708;7.906;2023-11-21T04:32:25;14.25;;;1.40;;
77206;SDS011;66190;50.708;7.906;2023-11-21T04:34:50;16.38;;;1.63;;
77206;SDS011;66190;50.708;7.906;2023-11-21T04:37:15;29.20;;;1.97;;
77206;SDS011;66190;50.708;7.906;2023-11-21T04:39:41;18.83;;;2.23;;
77206;SDS011;66190;50.708;7.906;2023-11-21T04:42:06;26.80;;;2.10;;
77206;SDS011;66190;50.708;7.906;2023-11-21T04:44:31;25.30;;;2.40;;
77206;SDS011;66190;50.708;7.906;2023-11-21T04:46:57;20.83;;;2.10;;
77206;SDS011;66190;50.708;7.906;2023-11-21T04:49:22;18.75;;;2.08;;
77206;SDS011;66190;50.708;7.906;2023-11-21T04:51:47;13.53;;;2.10;;
77206;SDS011;66190;50.708;7.906;2023-11-21T04:54:13;13.67;;;2.37;;
77206;SDS011;66190;50.708;7.906;2023-11-21T04:56:38;14.47;;;2.47;;
77206;SDS011;66190;50.708;7.906;2023-11-21T04:59:03;9.30;;;2.07;;
77206;SDS011;66190;50.708;7.906;2023-11-21T05:01:29;14.57;;;2.38;;
77206;SDS011;66190;50.708;7.906;2023-11-21T05:03:55;10.82;;;2.25;;
77206;SDS011;66190;50.708;7.906;2023-11-21T05:06:22;10.00;;;2.50;;
77206;SDS011;66190;50.708;7.906;2023-11-21T05:08:48;13.15;;;2.55;;
77206;SDS011;66190;50.708;7.906;2023-11-21T05:11:22;12.25;;;3.25;;
77206;SDS011;66190;50.708;7.906;2023-11-21T05:13:51;12.00;;;3.03;;
77206;SDS011;66190;50.708;7.906;2023-11-21T05:16:17;11.48;;;3.10;;
77206;SDS011;66190;50.708;7.906;2023-11-21T05:18:44;12.55;;;3.00;;
77206;SDS011;66190;50.708;7.906;2023-11-21T05:21:09;12.23;;;3.77;;
77206;SDS011;66190;50.708;7.906;2023-11-21T05:23:35;13.18;;;3.60;;
77206;SDS011;66190;50.708;7.906;2023-11-21T05:26:00;12.77;;;4.05;;
77206;SDS011;66190;50.708;7.906;2023-11-21T05:28:25;11.33;;;3.60;;
77206;SDS011;66190;50.708;7.906;2023-11-21T05:30:51;12.40;;;3.93;;
77206;SDS011;66190;50.708;7.906;2023-11-21T05:33:16;14.03;;;4.93;;
77206;SDS011;66190;50.708;7.906;2023-11-21T05:35:42;13.57;;;4.43;;
77206;SDS011;66190;50.708;7.906;2023-11-21T05:38:07;15.02;;;4.82;;
77206;SDS011;66190;50.708;7.906;2023-11-21T05:40:32;12.63;;;4.17;;
77206;SDS011;66190;50.708;7.906;2023-11-21T05:42:58;15.17;;;4.77;;
77206;SDS011;66190;50.708;7.906;2023-11-21T05:45:24;14.30;;;5.05;;
77206;SDS011;66190;50.708;7.906;2023-11-21T05:47:49;12.95;;;4.90;;
77206;SDS011;66190;50.708;7.906;2023-11-21T05:50:16;10.77;;;3.47;;
77206;SDS011;66190;50.708;7.906;2023-11-21T05:52:43;13.40;;;4.07;;
77206;SDS011;66190;50.708;7.906;2023-11-21T05:55:10;11.57;;;3.90;;
77206;SDS011;66190;50.708;7.906;2023-11-21T05:57:36;13.03;;;3.87;;
77206;SDS011;66190;50.708;7.906;2023-11-21T06:00:07;13.93;;;4.50;;
77206;SDS011;66190;50.708;7.906;2023-11-21T06:02:47;11.65;;;4.47;;
77206;SDS011;66190;50.708;7.906;2023-11-21T06:05:17;11.75;;;4.32;;
77206;SDS011;66190;50.708;7.906;2023-11-21T06:07:43;14.95;;;4.85;;
77206;SDS011;66190;50.708;7.906;2023-11-21T06:10:10;11.43;;;4.30;;
77206;SDS011;66190;50.708;7.906;2023-11-21T06:12:39;14.68;;;4.95;;
77206;SDS011;66190;50.708;7.906;2023-11-21T06:15:07;13.50;;;4.57;;
77206;SDS011;66190;50.708;7.906;2023-11-21T06:17:37;13.02;;;4.78;;
77206;SDS011;66190;50.708;7.906;2023-11-21T06:20:03;14.77;;;4.78;;
77206;SDS011;66190;50.708;7.906;2023-11-21T06:22:34;13.80;;;4.63;;
77206;SDS011;66190;50.708;7.906;2023-11-21T06:25:04;13.60;;;5.20;;
77206;SDS011;66190;50.708;7.906;2023-11-21T06:27:34;15.57;;;5.20;;
77206;SDS011;66190;50.708;7.906;2023-11-21T06:30:02;13.82;;;4.63;;
77206;SDS011;66190;50.708;7.906;2023-11-21T06:32:29;16.13;;;5.70;;
77206;SDS011;66190;50.708;7.906;2023-11-21T06:34:55;17.48;;;5.50;;
77206;SDS011;66190;50.708;7.906;2023-11-21T06:37:21;14.50;;;5.47;;
77206;SDS011;66190;50.708;7.906;2023-11-21T06:39:48;13.13;;;5.07;;
77206;SDS011;66190;50.708;7.906;2023-11-21T06:42:14;16.52;;;5.32;;
77206;SDS011;66190;50.708;7.906;2023-11-21T06:44:40;15.15;;;5.45;;
77206;SDS011;66190;50.708;7.906;2023-11-21T06:47:06;12.77;;;5.35;;
77206;SDS011;66190;50.708;7.906;2023-11-21T06:49:32;16.10;;;5.30;;
77206;SDS011;66190;50.708;7.906;2023-11-21T06:51:57;17.40;;;5.57;;
77206;SDS011;66190;50.708;7.906;2023-11-21T06:54:23;14.85;;;5.30;;
77206;SDS011;66190;50.708;7.906;2023-11-21T06:56:49;13.48;;;5.28;;
77206;SDS011;66190;50.708;7.906;2023-11-21T06:59:15;17.70;;;6.93;;
77206;SDS011;66190;50.708;7.906;2023-11-21T07:01:40;14.98;;;5.38;;
77206;SDS011;66190;50.708;7.906;2023-11-21T07:04:06;12.30;;;5.53;;
77206;SDS011;66190;50.708;7.906;2023-11-21T07:06:32;16.08;;;5.35;;
77206;SDS011;66190;50.708;7.906;2023-11-21T07:08:58;15.43;;;5.37;;
77206;SDS011;66190;50.708;7.906;2023-11-21T07:11:23;15.40;;;5.80;;
77206;SDS011;66190;50.708;7.906;2023-11-21T07:13:50;16.80;;;5.80;;
77206;SDS011;66190;50.708;7.906;2023-11-21T07:16:15;15.38;;;5.35;;
77206;SDS011;66190;50.708;7.906;2023-11-21T07:18:41;15.37;;;5.90;;
77206;SDS011;66190;50.708;7.906;2023-11-21T07:21:06;16.97;;;6.50;;
77206;SDS011;66190;50.708;7.906;2023-11-21T07:23:33;16.02;;;5.53;;
77206;SDS011;66190;50.708;7.906;2023-11-21T07:25:59;16.57;;;6.27;;
77206;SDS011;66190;50.708;7.906;2023-11-21T07:28:24;16.15;;;6.07;;
77206;SDS011;66190;50.708;7.906;2023-11-21T07:30:50;19.15;;;6.32;;
77206;SDS011;66190;50.708;7.906;2023-11-21T07:33:16;18.43;;;6.73;;
77206;SDS011;66190;50.708;7.906;2023-11-21T07:35:42;21.10;;;6.90;;
77206;SDS011;66190;50.708;7.906;2023-11-21T07:38:08;18.17;;;5.77;;
77206;SDS011;66190;50.708;7.906;2023-11-21T07:40:33;14.87;;;5.10;;
77206;SDS011;66190;50.708;7.906;2023-11-21T07:42:59;19.65;;;5.60;;
77206;SDS011;66190;50.708;7.906;2023-11-21T07:45:24;17.43;;;5.30;;
77206;SDS011;66190;50.708;7.906;2023-11-21T07:47:52;16.02;;;5.50;;
77206;SDS011;66190;50.708;7.906;2023-11-21T07:50:18;17.93;;;5.53;;
77206;SDS011;66190;50.708;7.906;2023-11-21T07:52:45;17.35;;;5.90;;
77206;SDS011;66190;50.708;7.906;2023-11-21T07:55:10;15.73;;;5.53;;
77206;SDS011;66190;50.708;7.906;2023-11-21T07:57:36;18.85;;;6.22;;
77206;SDS011;66190;50.708;7.906;2023-11-21T08:00:02;31.00;;;13.60;;
77206;SDS011;66190;50.708;7.906;2023-11-21T08:02:31;15.57;;;6.28;;
77206;SDS011;66190;50.708;7.906;2023-11-21T08:04:57;17.45;;;7.35;;
77206;SDS011;66190;50.708;7.906;2023-11-21T08:07:22;18.10;;;6.90;;
77206;SDS011;66190;50.708;7.906;2023-11-21T08:09:47;20.50;;;6.97;;
77206;SDS011;66190;50.708;7.906;2023-11-21T08:12:15;18.42;;;6.85;;
77206;SDS011;66190;50.708;7.906;2023-11-21T08:14:40;18.57;;;6.07;;
77206;SDS011;66190;50.708;7.906;2023-11-21T08:17:06;22.40;;;8.07;;
77206;SDS011;66190;50.708;7.906;2023-11-21T08:19:31;19.37;;;7.97;;
77206;SDS011;66190;50.708;7.906;2023-11-21T08:21:57;17.52;;;6.45;;
77206;SDS011;66190;50.708;7.906;2023-11-21T08:24:24;16.73;;;6.35;;
77206;SDS011;66190;50.708;7.906;2023-11-21T08:26:49;18.23;;;6.83;;
77206;SDS011;66190;50.708;7.906;2023-11-21T08:29:16;21.33;;;8.55;;
77206;SDS011;66190;50.708;7.906;2023-11-21T08:31:41;17.20;;;6.68;;
77206;SDS011;66190;50.708;7.906;2023-11-21T08:34:07;20.83;;;6.97;;
77206;SDS011;66190;50.708;7.906;2023-11-21T08:36:33;20.23;;;7.13;;
77206;SDS011;66190;50.708;7.906;2023-11-21T08:38:59;19.23;;;7.17;;
77206;SDS011;66190;50.708;7.906;2023-11-21T08:41:24;22.07;;;7.17;;
77206;SDS011;66190;50.708;7.906;2023-11-21T08:43:50;18.10;;;7.53;;
77206;SDS011;66190;50.708;7.906;2023-11-21T08:46:15;20.05;;;7.45;;
77206;SDS011;66190;50.708;7.906;2023-11-21T08:48:42;20.38;;;8.20;;
77206;SDS011;66190;50.708;7.906;2023-11-21T08:51:09;18.58;;;6.85;;
77206;SDS011;66190;50.708;7.906;2023-11-21T08:53:36;20.65;;;6.68;;
77206;SDS011;66190;50.708;7.906;2023-11-21T08:56:02;18.70;;;7.30;;
77206;SDS011;66190;50.708;7.906;2023-11-21T08:58:29;21.77;;;8.13;;
77206;SDS011;66190;50.708;7.906;2023-11-21T09:00:55;23.73;;;9.45;;
77206;SDS011;66190;50.708;7.906;2023-11-21T09:03:21;25.77;;;9.13;;
77206;SDS011;66190;50.708;7.906;2023-11-21T09:05:46;26.53;;;11.33;;
77206;SDS011;66190;50.708;7.906;2023-11-21T09:08:12;20.90;;;10.23;;
77206;SDS011;66190;50.708;7.906;2023-11-21T09:10:37;18.45;;;8.63;;
77206;SDS011;66190;50.708;7.906;2023-11-21T09:13:04;21.77;;;8.40;;
77206;SDS011;66190;50.708;7.906;2023-11-21T09:15:30;22.60;;;8.50;;
77206;SDS011;66190;50.708;7.906;2023-11-21T09:17:55;21.13;;;8.50;;
77206;SDS011;66190;50.708;7.906;2023-11-21T09:20:21;16.65;;;6.72;;
77206;SDS011;66190;50.708;7.906;2023-11-21T09:22:48;22.73;;;10.38;;
77206;SDS011;66190;50.708;7.906;2023-11-21T09:25:14;16.55;;;8.00;;
77206;SDS011;66190;50.708;7.906;2023-11-21T09:27:40;19.67;;;7.05;;
77206;SDS011;66190;50.708;7.906;2023-11-21T09:30:06;18.70;;;7.33;;
77206;SDS011;66190;50.708;7.906;2023-11-21T09:32:35;21.23;;;7.10;;
77206;SDS011;66190;50.708;7.906;2023-11-21T09:35:03;22.48;;;8.65;;
77206;SDS011;66190;50.708;7.906;2023-11-21T09:37:30;18.63;;;6.57;;
77206;SDS011;66190;50.708;7.906;2023-11-21T09:39:55;18.65;;;7.60;;
77206;SDS011;66190;50.708;7.906;2023-11-21T09:42:30;19.50;;;7.20;;
77206;SDS011;66190;50.708;7.906;2023-11-21T09:47:33;19.15;;;7.07;;
77206;SDS011;66190;50.708;7.906;2023-11-21T09:50:03;15.10;;;6.88;;
77206;SDS011;66190;50.708;7.906;2023-11-21T09:52:32;15.73;;;6.17;;
77206;SDS011;66190;50.708;7.906;2023-11-21T09:55:14;15.93;;;6.35;;
77206;SDS011;66190;50.708;7.906;2023-11-21T09:57:44;17.48;;;7.47;;
77206;SDS011;66190;50.708;7.906;2023-11-21T10:00:10;18.88;;;6.65;;
77206;SDS011;66190;50.708;7.906;2023-11-21T10:02:37;17.90;;;6.25;;
77206;SDS011;66190;50.708;7.906;2023-11-21T10:05:06;16.97;;;6.90;;
77206;SDS011;66190;50.708;7.906;2023-11-21T10:07:31;17.77;;;6.47;;
77206;SDS011;66190;50.708;7.906;2023-11-21T10:09:59;18.63;;;7.00;;
77206;SDS011;66190;50.708;7.906;2023-11-21T10:12:26;17.58;;;6.72;;
77206;SDS011;66190;50.708;7.906;2023-11-21T10:14:53;17.42;;;6.57;;
77206;SDS011;66190;50.708;7.906;2023-11-21T10:17:21;18.17;;;5.80;;
77206;SDS011;66190;50.708;7.906;2023-11-21T10:19:51;16.55;;;6.43;;
77206;SDS011;66190;50.708;7.906;2023-11-21T10:22:18;20.40;;;6.78;;
77206;SDS011;66190;50.708;7.906;2023-11-21T10:24:45;19.08;;;7.25;;
77206;SDS011;66190;50.708;7.906;2023-11-21T10:27:11;17.97;;;7.17;;
77206;SDS011;66190;50.708;7.906;2023-11-21T10:29:38;19.75;;;7.85;;
77206;SDS011;66190;50.708;7.906;2023-11-21T10:32:04;19.80;;;7.40;;
77206;SDS011;66190;50.708;7.906;2023-11-21T10:34:30;18.10;;;7.57;;
77206;SDS011;66190;50.708;7.906;2023-11-21T10:36:56;15.75;;;6.43;;
77206;SDS011;66190;50.708;7.906;2023-11-21T10:39:23;18.27;;;6.85;;
77206;SDS011;66190;50.708;7.906;2023-11-21T10:41:52;20.33;;;7.68;;
77206;SDS011;66190;50.708;7.906;2023-11-21T10:44:19;22.85;;;7.55;;
77206;SDS011;66190;50.708;7.906;2023-11-21T10:46:52;17.48;;;7.47;;
77206;SDS011;66190;50.708;7.906;2023-11-21T10:49:25;21.63;;;7.60;;
77206;SDS011;66190;50.708;7.906;2023-11-21T10:51:52;20.27;;;7.80;;
77206;SDS011;66190;50.708;7.906;2023-11-21T10:54:19;19.30;;;7.40;;
77206;SDS011;66190;50.708;7.906;2023-11-21T10:56:46;20.60;;;7.85;;
77206;SDS011;66190;50.708;7.906;2023-11-21T10:59:16;23.23;;;7.18;;
77206;SDS011;66190;50.708;7.906;2023-11-21T11:01:42;21.70;;;7.47;;
77206;SDS011;66190;50.708;7.906;2023-11-21T11:04:10;21.02;;;7.60;;
77206;SDS011;66190;50.708;7.906;2023-11-21T11:06:42;20.30;;;7.90;;
77206;SDS011;66190;50.708;7.906;2023-11-21T11:09:09;19.08;;;7.40;;
77206;SDS011;66190;50.708;7.906;2023-11-21T11:11:39;24.20;;;9.50;;
77206;SDS011;66190;50.708;7.906;2023-11-21T11:14:10;22.67;;;9.52;;
77206;SDS011;66190;50.708;7.906;2023-11-21T11:16:37;20.42;;;9.13;;
77206;SDS011;66190;50.708;7.906;2023-11-21T11:19:06;20.70;;;7.93;;
77206;SDS011;66190;50.708;7.906;2023-11-21T11:30:17;18.80;;;7.32;;
77206;SDS011;66190;50.708;7.906;2023-11-21T11:33:25;16.63;;;6.60;;
77206;SDS011;66190;50.708;7.906;2023-11-21T11:36:00;17.73;;;6.33;;
77206;SDS011;66190;50.708;7.906;2023-11-21T11:38:31;18.10;;;6.82;;
77206;SDS011;66190;50.708;7.906;2023-11-21T11:41:03;17.15;;;7.30;;
77206;SDS011;66190;50.708;7.906;2023-11-21T11:43:30;23.17;;;7.65;;
77206;SDS011;66190;50.708;7.906;2023-11-21T11:46:09;20.83;;;7.22;;
77206;SDS011;66190;50.708;7.906;2023-11-21T11:48:38;19.67;;;8.03;;
77206;SDS011;66190;50.708;7.906;2023-11-21T11:53:43;18.58;;;7.57;;
77206;SDS011;66190;50.708;7.906;2023-11-21T11:58:50;18.38;;;6.57;;
77206;SDS011;66190;50.708;7.906;2023-11-21T12:01:20;20.00;;;6.03;;
77206;SDS011;66190;50.708;7.906;2023-11-21T12:06:42;18.98;;;6.47;;
77206;SDS011;66190;50.708;7.906;2023-11-21T12:09:12;21.38;;;6.47;;
77206;SDS011;66190;50.708;7.906;2023-11-21T12:11:46;17.42;;;6.78;;
77206;SDS011;66190;50.708;7.906;2023-11-21T12:14:13;16.38;;;7.07;;
77206;SDS011;66190;50.708;7.906;2023-11-21T12:16:39;19.67;;;7.72;;
77206;SDS011;66190;50.708;7.906;2023-11-21T12:19:05;19.35;;;7.78;;
77206;SDS011;66190;50.708;7.906;2023-11-21T12:21:31;26.67;;;8.53;;
77206;SDS011;66190;50.708;7.906;2023-11-21T12:23:57;17.85;;;7.18;;
77206;SDS011;66190;50.708;7.906;2023-11-21T12:26:25;18.90;;;7.80;;
77206;SDS011;66190;50.708;7.906;2023-11-21T12:28:52;21.55;;;8.02;;
77206;SDS011;66190;50.708;7.906;2023-11-21T12:31:20;22.92;;;8.68;;
77206;SDS011;66190;50.708;7.906;2023-11-21T12:33:46;23.55;;;7.72;;
77206;SDS011;66190;50.708;7.906;2023-11-21T12:36:12;20.35;;;7.63;;
77206;SDS011;66190;50.708;7.906;2023-11-21T12:38:38;22.63;;;8.20;;
77206;SDS011;66190;50.708;7.906;2023-11-21T12:41:03;18.50;;;7.80;;
77206;SDS011;66190;50.708;7.906;2023-11-21T12:43:29;23.98;;;8.68;;
77206;SDS011;66190;50.708;7.906;2023-11-21T12:46:06;24.13;;;9.60;;
77206;SDS011;66190;50.708;7.906;2023-11-21T12:48:32;22.88;;;9.20;;
77206;SDS011;66190;50.708;7.906;2023-11-21T12:50:58;20.05;;;7.85;;
77206;SDS011;66190;50.708;7.906;2023-11-21T12:53:25;21.23;;;8.30;;
77206;SDS011;66190;50.708;7.906;2023-11-21T12:55:51;21.80;;;8.07;;
77206;SDS011;66190;50.708;7.906;2023-11-21T12:58:16;21.02;;;8.15;;
77206;SDS011;66190;50.708;7.906;2023-11-21T13:00:46;18.90;;;7.80;;
77206;SDS011;66190;50.708;7.906;2023-11-21T13:03:12;21.05;;;8.65;;
77206;SDS011;66190;50.708;7.906;2023-11-21T13:05:44;21.02;;;8.18;;
77206;SDS011;66190;50.708;7.906;2023-11-21T13:08:12;24.10;;;8.52;;
77206;SDS011;66190;50.708;7.906;2023-11-21T13:10:39;20.45;;;7.50;;
77206;SDS011;66190;50.708;7.906;2023-11-21T13:13:07;28.45;;;10.38;;
77206;SDS011;66190;50.708;7.906;2023-11-21T13:15:34;24.75;;;9.50;;
77206;SDS011;66190;50.708;7.906;2023-11-21T13:18:03;25.88;;;9.55;;
77206;SDS011;66190;50.708;7.906;2023-11-21T13:20:29;25.27;;;10.27;;
77206;SDS011;66190;50.708;7.906;2023-11-21T13:22:58;25.35;;;9.13;;
77206;SDS011;66190;50.708;7.906;2023-11-21T13:25:25;19.52;;;7.47;;
77206;SDS011;66190;50.708;7.906;2023-11-21T13:27:54;22.05;;;10.88;;
77206;SDS011;66190;50.708;7.906;2023-11-21T13:30:20;25.05;;;10.45;;
77206;SDS011;66190;50.708;7.906;2023-11-21T13:32:51;20.45;;;10.02;;
77206;SDS011;66190;50.708;7.906;2023-11-21T13:35:17;22.57;;;10.33;;
77206;SDS011;66190;50.708;7.906;2023-11-21T13:37:48;21.10;;;8.20;;
77206;SDS011;66190;50.708;7.906;2023-11-21T13:40:19;19.58;;;7.18;;
77206;SDS011;66190;50.708;7.906;2023-11-21T13:42:47;20.08;;;7.35;;
77206;SDS011;66190;50.708;7.906;2023-11-21T13:45:14;18.13;;;7.28;;
77206;SDS011;66190;50.708;7.906;2023-11-21T13:47:39;19.85;;;6.88;;
77206;SDS011;66190;50.708;7.906;2023-11-21T13:50:05;18.20;;;7.73;;
77206;SDS011;66190;50.708;7.906;2023-11-21T13:52:44;21.70;;;7.45;;
77206;SDS011;66190;50.708;7.906;2023-11-21T13:55:12;19.97;;;7.73;;
77206;SDS011;66190;50.708;7.906;2023-11-21T13:57:41;19.80;;;7.28;;
77206;SDS011;66190;50.708;7.906;2023-11-21T14:00:14;19.40;;;7.50;;
77206;SDS011;66190;50.708;7.906;2023-11-21T14:02:59;21.03;;;7.97;;
77206;SDS011;66190;50.708;7.906;2023-11-21T14:05:26;19.10;;;7.30;;
77206;SDS011;66190;50.708;7.906;2023-11-21T14:07:54;20.17;;;7.00;;
77206;SDS011;66190;50.708;7.906;2023-11-21T14:10:29;22.52;;;6.80;;
77206;SDS011;66190;50.708;7.906;2023-11-21T14:13:11;18.35;;;6.22;;
77206;SDS011;66190;50.708;7.906;2023-11-21T14:15:38;18.23;;;6.77;;
77206;SDS011;66190;50.708;7.906;2023-11-21T14:18:07;19.02;;;6.95;;
77206;SDS011;66190;50.708;7.906;2023-11-21T14:20:36;24.10;;;6.65;;
77206;SDS011;66190;50.708;7.906;2023-11-21T14:23:04;21.85;;;6.72;;
77206;SDS011;66190;50.708;7.906;2023-11-21T14:25:32;18.02;;;6.47;;
77206;SDS011;66190;50.708;7.906;2023-11-21T14:27:58;20.27;;;7.17;;
77206;SDS011;66190;50.708;7.906;2023-11-21T14:30:24;22.50;;;7.38;;
77206;SDS011;66190;50.708;7.906;2023-11-21T14:32:50;22.92;;;8.70;;
77206;SDS011;66190;50.708;7.906;2023-11-21T14:35:16;24.07;;;8.23;;
77206;SDS011;66190;50.708;7.906;2023-11-21T14:37:42;22.52;;;8.00;;
77206;SDS011;66190;50.708;7.906;2023-11-21T14:40:08;22.85;;;8.27;;
77206;SDS011;66190;50.708;7.906;2023-11-21T14:42:34;19.60;;;7.20;;
77206;SDS011;66190;50.708;7.906;2023-11-21T14:45:02;19.20;;;7.05;;
77206;SDS011;66190;50.708;7.906;2023-11-21T14:47:31;16.05;;;7.13;;
77206;SDS011;66190;50.708;7.906;2023-11-21T14:49:57;15.70;;;6.00;;
77206;SDS011;66190;50.708;7.906;2023-11-21T14:52:24;17.77;;;6.82;;
77206;SDS011;66190;50.708;7.906;2023-11-21T14:54:59;19.42;;;6.78;;